Ana Sayfa
METAR-TAF:

METAR-TAF

Havaalanları :

Pecos, Teksas, Amerika Birleşik Devletleri

Enlem: 31-22-56N, Boylam: 103-30-38W, yükseklik: 796 m

Güncel hava durumu gözlemi

Rapor saat 23:55 UTC de 32 dakika önce yapıldı.
Rüzgar batı/kuzeybatıdan 4 kt
Sıcaklık 19°C
Nem 12%
Basınç 1023 hPa
Görüş mesafesi: 16.1 km
Açık gökyüzü

METAR: KPEQ 272355Z AUTO 30004KT 10SM CLR 19/M11 A3022 RMK AO2 T01911112 10204 20151

Saat: 18:27 (00:27 UTC)

Tahmin

Rapor saat 23:20 UTC de 1 saat ve 7 dakika önce yapıldı.
Ayın 28'si saat 00 UTC'den ayın 28'si saat 24 UTC'ye kadar geçerli Tahmin
Rüzgar batı/kuzeybatıdan 7 kt
Görüş mesafesi: 10 km
Açık gökyüzü

TAF: KPEQ 272320Z 2800/2824 30007KT P6SM SKC

4.000'den fazla havaalanı için hava durumu gözlemleri ve tahminleri (METAR ve TAF raporları).

Kullanılabilir istasyonlar harita üzerinde sarı ve kırmızı noktalarla gösterilir.

İstasyonun adını görmek için fareyi noktanın üzerinde gezdirin.

Sonrasında hava gözlem ve tahminlerini görmek için tıklayın.

Haritayı değiştirmek için: yaklaştırmak için siyah artı işaretli yeşil düğmeye ve uzaklaştırmak için de eksi işaretli düğmeye hızla tıklayın; bitişik haritalar için yeşil okları kullanın.


METAR-TAF: